createdAt,value
2023-01-09T00:00:26.343Z,22.50
2023-01-09T00:05:28.819Z,19.83
2023-01-09T00:10:31.320Z,23.00
2023-01-09T00:15:33.989Z,20.00
2023-01-09T00:20:36.787Z,14.93
2023-01-09T00:25:41.687Z,21.80
2023-01-09T00:30:44.996Z,21.63
2023-01-09T00:35:47.616Z,20.33
2023-01-09T00:40:51.285Z,20.67
2023-01-09T00:45:53.956Z,19.53
2023-01-09T00:51:00.329Z,22.07
2023-01-09T00:56:07.748Z,16.87
2023-01-09T01:01:10.528Z,18.67
2023-01-09T01:06:31.536Z,22.63
2023-01-09T01:11:34.546Z,22.30
2023-01-09T01:16:37.740Z,23.63
2023-01-09T01:21:40.229Z,23.70
2023-01-09T01:26:42.772Z,22.70
2023-01-09T01:31:45.229Z,23.07
2023-01-09T01:36:47.817Z,18.97
2023-01-09T01:41:50.494Z,23.80
2023-01-09T01:46:55.542Z,23.33
2023-01-09T01:51:59.316Z,19.73
2023-01-09T01:57:03.936Z,20.97
2023-01-09T02:02:08.188Z,24.73
2023-01-09T02:07:10.909Z,19.23
2023-01-09T02:12:23.853Z,22.07
2023-01-09T02:17:41.223Z,17.47
2023-01-09T02:22:49.335Z,17.90
2023-01-09T02:28:00.991Z,20.90
2023-01-09T02:33:24.995Z,20.17
2023-01-09T02:38:55.246Z,23.63
2023-01-09T02:44:17.307Z,18.37
2023-01-09T02:49:19.762Z,23.57
2023-01-09T02:54:43.068Z,21.47
2023-01-09T02:59:56.794Z,23.63
2023-01-09T03:05:11.571Z,21.77
2023-01-09T03:10:27.008Z,22.83
2023-01-09T03:15:34.695Z,22.90
2023-01-09T03:20:38.862Z,21.00
2023-01-09T03:25:41.401Z,16.33
2023-01-09T03:30:43.957Z,16.07
2023-01-09T03:35:46.887Z,16.60
2023-01-09T03:40:49.308Z,18.43
2023-01-09T03:45:51.887Z,22.07
2023-01-09T03:50:55.944Z,17.17
2023-01-09T03:55:58.973Z,21.30
2023-01-09T04:01:04.174Z,19.93
2023-01-09T04:06:07.367Z,15.70
2023-01-09T04:11:09.865Z,20.10
2023-01-09T04:16:12.431Z,21.10
2023-01-09T04:21:14.936Z,22.90
2023-01-09T04:26:17.395Z,18.87
2023-01-09T04:31:20.114Z,22.17
2023-01-09T04:36:22.588Z,20.13
2023-01-09T04:41:43.447Z,20.77
2023-01-09T04:46:46.217Z,36.27
2023-01-09T04:51:48.864Z,18.97
2023-01-09T04:56:51.310Z,22.93
2023-01-09T05:01:55.838Z,24.93
2023-01-09T05:06:58.377Z,25.33
2023-01-09T05:12:01.914Z,24.77
2023-01-09T05:17:04.534Z,19.87
2023-01-09T05:22:06.987Z,21.97
2023-01-09T05:27:09.444Z,19.73
2023-01-09T05:32:11.873Z,20.03
2023-01-09T05:37:14.414Z,20.37
2023-01-09T05:42:16.910Z,22.53
2023-01-09T05:47:19.391Z,18.40
2023-01-09T05:52:22.346Z,22.00
2023-01-09T05:57:24.764Z,22.03
2023-01-09T06:02:27.383Z,18.53
2023-01-09T06:07:30.028Z,22.70
2023-01-09T06:12:32.490Z,24.87
2023-01-09T06:17:35.028Z,27.83
2023-01-09T06:22:37.640Z,21.50
2023-01-09T06:27:40.161Z,20.93
2023-01-09T06:32:42.688Z,22.07
2023-01-09T06:37:45.128Z,30.53
2023-01-09T06:42:49.450Z,40.47
2023-01-09T06:47:51.981Z,41.53
2023-01-09T06:52:54.527Z,40.90
2023-01-09T06:57:57.084Z,41.17
2023-01-09T07:02:59.611Z,35.43
2023-01-09T07:08:02.094Z,35.60
2023-01-09T07:13:04.580Z,36.87
2023-01-09T07:18:07.103Z,36.37
2023-01-09T07:23:13.057Z,37.50
2023-01-09T07:28:15.572Z,36.83
2023-01-09T07:33:18.172Z,37.80
2023-01-09T07:38:20.578Z,39.80
2023-01-09T07:43:23.011Z,37.50
2023-01-09T07:48:25.493Z,37.23
2023-01-09T07:53:28.403Z,36.93
2023-01-09T07:58:30.874Z,39.43
2023-01-09T08:03:35.935Z,37.53
2023-01-09T08:08:38.483Z,37.53
2023-01-09T08:13:40.924Z,36.70
2023-01-09T08:18:43.553Z,35.93
2023-01-09T08:23:46.462Z,38.63
2023-01-09T08:28:49.021Z,38.67
2023-01-09T08:33:51.508Z,39.03
2023-01-09T08:38:54.145Z,36.47
2023-01-09T08:44:15.475Z,34.43
2023-01-09T08:49:18.115Z,31.50
2023-01-09T08:54:21.031Z,41.57
2023-01-09T08:59:23.523Z,40.77
2023-01-09T09:04:26.132Z,38.63
2023-01-09T09:09:28.495Z,32.20
2023-01-09T09:14:49.453Z,39.33
2023-01-09T09:19:51.925Z,31.50
2023-01-09T09:24:54.464Z,30.33
2023-01-09T09:29:57.045Z,36.33
2023-01-09T09:34:59.530Z,31.20
2023-01-09T09:40:13.293Z,27.40
2023-01-09T09:45:44.541Z,33.73
2023-01-09T09:51:34.970Z,33.50
2023-01-09T09:56:48.140Z,34.37
2023-01-09T10:01:56.362Z,35.80
2023-01-09T10:07:06.874Z,38.97
2023-01-09T10:12:27.475Z,27.60
2023-01-09T10:18:07.484Z,31.97
2023-01-09T10:23:47.444Z,27.80
2023-01-09T10:29:21.975Z,35.93
2023-01-09T10:34:30.259Z,30.40
2023-01-09T10:39:57.099Z,27.47
2023-01-09T10:45:28.205Z,36.40
2023-01-09T10:50:35.825Z,31.83
2023-01-09T10:55:48.504Z,28.43
2023-01-09T11:00:51.966Z,34.03
2023-01-09T11:05:59.557Z,32.87
2023-01-09T11:11:03.290Z,31.83
2023-01-09T11:16:17.608Z,35.17
2023-01-09T11:21:28.222Z,31.97
2023-01-09T11:26:33.077Z,28.80
2023-01-09T11:31:36.047Z,24.47
2023-01-09T11:36:38.738Z,31.53
2023-01-09T11:41:41.291Z,30.27
2023-01-09T11:46:44.810Z,32.30
2023-01-09T11:52:04.416Z,26.07
2023-01-09T11:57:25.923Z,32.00
2023-01-09T12:03:06.794Z,32.77
2023-01-09T12:08:40.291Z,33.87
2023-01-09T12:13:42.850Z,35.27
2023-01-09T12:19:05.642Z,33.60
2023-01-09T12:31:04.726Z,34.83
2023-01-09T12:36:24.721Z,34.10
2023-01-09T12:41:43.359Z,33.27
2023-01-09T12:47:13.158Z,38.97
2023-01-09T12:52:23.376Z,37.43
2023-01-09T12:57:35.606Z,39.10
2023-01-09T13:02:45.612Z,39.20
2023-01-09T13:07:54.901Z,39.47
2023-01-09T13:13:00.022Z,41.93
2023-01-09T13:18:26.537Z,39.30
2023-01-09T13:23:52.929Z,41.30
2023-01-09T13:29:04.262Z,42.73
2023-01-09T13:34:21.950Z,43.83
2023-01-09T13:39:26.322Z,46.33
2023-01-09T13:44:29.224Z,42.50
2023-01-09T13:49:43.849Z,44.13
2023-01-09T13:54:52.004Z,43.63
2023-01-09T13:59:58.478Z,44.57
2023-01-09T14:05:02.256Z,41.03
2023-01-09T14:10:08.295Z,40.60
2023-01-09T14:15:37.797Z,39.43
2023-01-09T14:20:48.040Z,40.03
2023-01-09T14:25:52.479Z,37.67
2023-01-09T14:30:55.013Z,35.93
2023-01-09T14:36:24.358Z,39.27
2023-01-09T14:42:04.108Z,43.10
2023-01-09T14:47:29.849Z,41.67
2023-01-09T14:52:44.883Z,46.83
2023-01-09T14:57:52.146Z,42.33
2023-01-09T15:02:55.018Z,42.43
2023-01-09T15:08:03.404Z,33.90
2023-01-09T15:13:14.133Z,38.07
2023-01-09T15:18:30.185Z,36.73
2023-01-09T15:23:32.808Z,38.67
2023-01-09T15:28:42.816Z,37.10
2023-01-09T15:33:47.708Z,35.60
2023-01-09T15:38:51.567Z,33.63
2023-01-09T15:43:54.185Z,33.20
2023-01-09T15:48:56.970Z,34.53
2023-01-09T15:54:01.118Z,33.27
2023-01-09T15:59:23.201Z,36.23
2023-01-09T16:04:25.901Z,43.20
2023-01-09T16:09:30.277Z,29.23
2023-01-09T16:14:38.616Z,30.67
2023-01-09T16:19:41.216Z,28.50
2023-01-09T16:24:43.774Z,29.23
2023-01-09T16:29:51.130Z,28.17
2023-01-09T16:35:04.689Z,29.40
2023-01-09T16:46:45.470Z,26.43
2023-01-09T16:51:51.700Z,26.57
2023-01-09T16:56:54.892Z,28.20
2023-01-09T17:01:57.455Z,27.37
2023-01-09T17:07:00.365Z,25.67
2023-01-09T17:12:02.733Z,26.67
2023-01-09T17:17:09.465Z,25.30
2023-01-09T17:22:11.943Z,24.07
2023-01-09T17:27:33.056Z,24.53
2023-01-09T17:32:35.515Z,23.77
2023-01-09T17:37:38.844Z,24.47
2023-01-09T17:42:41.271Z,24.60
2023-01-09T17:47:46.621Z,27.33
2023-01-09T17:52:50.923Z,30.80
2023-01-09T17:57:53.785Z,30.30
2023-01-09T18:02:57.332Z,32.33
2023-01-09T18:08:00.053Z,32.13
2023-01-09T18:13:02.637Z,31.23
2023-01-09T18:18:06.082Z,29.37
2023-01-09T18:23:10.970Z,19.37
2023-01-09T18:28:15.462Z,19.30
2023-01-09T18:33:18.101Z,18.57
2023-01-09T18:38:20.554Z,19.83
2023-01-09T18:43:23.001Z,19.07
2023-01-09T18:48:26.750Z,17.93
2023-01-09T18:53:29.167Z,17.23
2023-01-09T18:58:33.876Z,16.63
2023-01-09T19:03:36.511Z,15.93
2023-01-09T19:08:39.038Z,14.90
2023-01-09T19:13:42.036Z,15.90
2023-01-09T19:18:44.636Z,15.17
2023-01-09T19:23:48.207Z,15.83
2023-01-09T19:28:51.966Z,16.87
2023-01-09T19:33:54.564Z,17.07
2023-01-09T19:38:58.851Z,16.73
2023-01-09T19:44:01.896Z,15.23
2023-01-09T19:49:05.161Z,14.80
2023-01-09T19:54:09.256Z,15.57
2023-01-09T19:59:14.347Z,15.30
2023-01-09T20:04:17.750Z,15.53
2023-01-09T20:09:27.412Z,17.27
2023-01-09T20:14:29.849Z,17.57
2023-01-09T20:19:33.249Z,18.90
2023-01-09T20:24:37.193Z,21.83
2023-01-09T20:29:39.783Z,19.87
2023-01-09T20:34:45.136Z,17.17
2023-01-09T20:39:47.612Z,19.67
2023-01-09T20:44:50.309Z,19.27
2023-01-09T20:49:52.904Z,19.93
2023-01-09T20:54:55.455Z,17.87
2023-01-09T20:59:58.001Z,18.97
2023-01-09T21:05:00.441Z,20.83
2023-01-09T21:10:03.109Z,19.97
2023-01-09T21:15:09.313Z,21.30
2023-01-09T21:20:14.867Z,22.50
2023-01-09T21:25:17.454Z,23.00
2023-01-09T21:30:20.037Z,20.13
2023-01-09T21:35:22.605Z,22.93
2023-01-09T21:40:25.043Z,21.10
2023-01-09T21:45:46.263Z,27.13
2023-01-09T21:50:48.833Z,37.87
2023-01-09T21:55:51.308Z,65.07
2023-01-09T22:01:00.493Z,73.37
2023-01-09T22:12:22.321Z,71.63
2023-01-09T22:17:25.347Z,59.17
2023-01-09T22:22:30.631Z,25.10
2023-01-09T22:27:33.120Z,31.70
2023-01-09T22:33:39.753Z,37.60
2023-01-09T22:38:42.242Z,43.03
2023-01-09T22:43:44.872Z,44.83
2023-01-09T22:48:47.585Z,43.50
2023-01-09T22:53:51.107Z,37.73
2023-01-09T22:58:55.393Z,30.20
2023-01-09T23:03:57.867Z,32.93
2023-01-09T23:09:00.425Z,31.07
2023-01-09T23:14:02.911Z,30.20
2023-01-09T23:19:14.623Z,29.03
2023-01-09T23:24:18.302Z,30.67
2023-01-09T23:29:21.831Z,30.90
2023-01-09T23:34:30.565Z,31.47
2023-01-09T23:39:36.276Z,32.40
2023-01-09T23:44:39.007Z,25.10
2023-01-09T23:49:41.673Z,27.07
2023-01-09T23:54:44.148Z,30.23
2023-01-09T23:59:46.705Z,28.77
